sensor_id;sensor_type;location;lat;lon;timestamp;P1;durP1;ratioP1;P2;durP2;ratioP2
56911;SDS011;42800;53.928;27.662;2024-01-16T00:01:29;10.48;;;6.47;;
56911;SDS011;42800;53.928;27.662;2024-01-16T00:03:55;13.82;;;6.63;;
56911;SDS011;42800;53.928;27.662;2024-01-16T00:06:21;11.30;;;6.00;;
56911;SDS011;42800;53.928;27.662;2024-01-16T00:08:48;13.32;;;5.95;;
56911;SDS011;42800;53.928;27.662;2024-01-16T00:11:14;13.95;;;7.07;;
56911;SDS011;42800;53.928;27.662;2024-01-16T00:13:40;10.32;;;5.82;;
56911;SDS011;42800;53.928;27.662;2024-01-16T00:16:07;12.70;;;6.13;;
56911;SDS011;42800;53.928;27.662;2024-01-16T00:18:33;11.80;;;5.93;;
56911;SDS011;42800;53.928;27.662;2024-01-16T00:21:00;10.48;;;6.57;;
56911;SDS011;42800;53.928;27.662;2024-01-16T00:23:27;11.48;;;6.65;;
56911;SDS011;42800;53.928;27.662;2024-01-16T00:25:53;12.50;;;5.88;;
56911;SDS011;42800;53.928;27.662;2024-01-16T00:28:19;12.43;;;6.28;;
56911;SDS011;42800;53.928;27.662;2024-01-16T00:30:46;13.40;;;5.80;;
56911;SDS011;42800;53.928;27.662;2024-01-16T00:33:13;10.43;;;5.78;;
56911;SDS011;42800;53.928;27.662;2024-01-16T00:35:39;9.55;;;5.80;;
56911;SDS011;42800;53.928;27.662;2024-01-16T00:38:05;6.50;;;4.93;;
56911;SDS011;42800;53.928;27.662;2024-01-16T00:40:31;9.75;;;6.38;;
56911;SDS011;42800;53.928;27.662;2024-01-16T00:42:58;8.25;;;5.65;;
56911;SDS011;42800;53.928;27.662;2024-01-16T00:45:24;10.93;;;5.50;;
56911;SDS011;42800;53.928;27.662;2024-01-16T00:47:50;7.85;;;4.85;;
56911;SDS011;42800;53.928;27.662;2024-01-16T00:50:17;10.90;;;5.80;;
56911;SDS011;42800;53.928;27.662;2024-01-16T00:52:43;8.65;;;5.55;;
56911;SDS011;42800;53.928;27.662;2024-01-16T00:55:09;11.38;;;5.40;;
56911;SDS011;42800;53.928;27.662;2024-01-16T00:57:35;9.73;;;4.93;;
56911;SDS011;42800;53.928;27.662;2024-01-16T01:00:01;10.13;;;5.85;;
56911;SDS011;42800;53.928;27.662;2024-01-16T01:02:29;14.50;;;7.35;;
56911;SDS011;42800;53.928;27.662;2024-01-16T01:04:55;8.05;;;5.10;;
56911;SDS011;42800;53.928;27.662;2024-01-16T01:07:22;12.10;;;6.00;;
56911;SDS011;42800;53.928;27.662;2024-01-16T01:09:48;12.48;;;5.22;;
56911;SDS011;42800;53.928;27.662;2024-01-16T01:12:14;9.90;;;6.07;;
56911;SDS011;42800;53.928;27.662;2024-01-16T01:14:40;8.55;;;5.32;;
56911;SDS011;42800;53.928;27.662;2024-01-16T01:17:06;11.00;;;5.38;;
56911;SDS011;42800;53.928;27.662;2024-01-16T01:19:33;10.35;;;5.78;;
56911;SDS011;42800;53.928;27.662;2024-01-16T01:21:59;11.18;;;6.00;;
56911;SDS011;42800;53.928;27.662;2024-01-16T01:24:26;11.45;;;6.05;;
56911;SDS011;42800;53.928;27.662;2024-01-16T01:26:52;10.98;;;5.45;;
56911;SDS011;42800;53.928;27.662;2024-01-16T01:29:18;9.30;;;5.70;;
56911;SDS011;42800;53.928;27.662;2024-01-16T01:31:45;11.15;;;5.40;;
56911;SDS011;42800;53.928;27.662;2024-01-16T01:34:12;12.75;;;4.93;;
56911;SDS011;42800;53.928;27.662;2024-01-16T01:36:39;8.32;;;4.72;;
56911;SDS011;42800;53.928;27.662;2024-01-16T01:39:05;13.02;;;5.60;;
56911;SDS011;42800;53.928;27.662;2024-01-16T01:41:32;11.02;;;5.07;;
56911;SDS011;42800;53.928;27.662;2024-01-16T01:43:58;7.00;;;4.28;;
56911;SDS011;42800;53.928;27.662;2024-01-16T01:46:24;5.93;;;4.35;;
56911;SDS011;42800;53.928;27.662;2024-01-16T01:48:51;10.77;;;4.80;;
56911;SDS011;42800;53.928;27.662;2024-01-16T01:51:17;5.43;;;4.20;;
56911;SDS011;42800;53.928;27.662;2024-01-16T01:53:45;8.07;;;4.00;;
56911;SDS011;42800;53.928;27.662;2024-01-16T01:56:13;7.90;;;4.57;;
56911;SDS011;42800;53.928;27.662;2024-01-16T01:58:43;6.65;;;4.28;;
56911;SDS011;42800;53.928;27.662;2024-01-16T02:01:12;8.15;;;3.80;;
56911;SDS011;42800;53.928;27.662;2024-01-16T02:03:40;7.40;;;3.92;;
56911;SDS011;42800;53.928;27.662;2024-01-16T02:06:08;4.22;;;3.15;;
56911;SDS011;42800;53.928;27.662;2024-01-16T02:08:35;6.75;;;3.40;;
56911;SDS011;42800;53.928;27.662;2024-01-16T02:11:02;5.53;;;3.30;;
56911;SDS011;42800;53.928;27.662;2024-01-16T02:13:28;9.38;;;3.88;;
56911;SDS011;42800;53.928;27.662;2024-01-16T02:15:55;9.10;;;3.08;;
56911;SDS011;42800;53.928;27.662;2024-01-16T02:18:21;2.97;;;2.70;;
56911;SDS011;42800;53.928;27.662;2024-01-16T02:20:47;3.13;;;2.75;;
56911;SDS011;42800;53.928;27.662;2024-01-16T02:23:14;3.95;;;3.17;;
56911;SDS011;42800;53.928;27.662;2024-01-16T02:25:41;5.32;;;3.13;;
56911;SDS011;42800;53.928;27.662;2024-01-16T02:28:09;3.78;;;2.83;;
56911;SDS011;42800;53.928;27.662;2024-01-16T02:30:35;5.70;;;3.08;;
56911;SDS011;42800;53.928;27.662;2024-01-16T02:33:01;4.43;;;2.40;;
56911;SDS011;42800;53.928;27.662;2024-01-16T02:35:28;3.67;;;2.65;;
56911;SDS011;42800;53.928;27.662;2024-01-16T02:37:55;6.18;;;2.85;;
56911;SDS011;42800;53.928;27.662;2024-01-16T02:40:21;4.47;;;2.47;;
56911;SDS011;42800;53.928;27.662;2024-01-16T02:42:48;5.22;;;2.63;;
56911;SDS011;42800;53.928;27.662;2024-01-16T02:45:14;3.15;;;2.85;;
56911;SDS011;42800;53.928;27.662;2024-01-16T02:47:40;2.20;;;1.90;;
56911;SDS011;42800;53.928;27.662;2024-01-16T02:50:06;4.45;;;2.67;;
56911;SDS011;42800;53.928;27.662;2024-01-16T02:52:34;4.35;;;2.53;;
56911;SDS011;42800;53.928;27.662;2024-01-16T02:55:01;4.95;;;2.67;;
56911;SDS011;42800;53.928;27.662;2024-01-16T02:57:27;3.25;;;2.65;;
56911;SDS011;42800;53.928;27.662;2024-01-16T02:59:54;3.85;;;2.60;;
56911;SDS011;42800;53.928;27.662;2024-01-16T03:02:20;2.42;;;2.22;;
56911;SDS011;42800;53.928;27.662;2024-01-16T03:04:46;2.72;;;2.22;;
56911;SDS011;42800;53.928;27.662;2024-01-16T03:07:12;4.22;;;2.63;;
56911;SDS011;42800;53.928;27.662;2024-01-16T03:09:38;3.88;;;2.20;;
56911;SDS011;42800;53.928;27.662;2024-01-16T03:12:05;4.22;;;2.42;;
56911;SDS011;42800;53.928;27.662;2024-01-16T03:14:31;5.05;;;2.95;;
56911;SDS011;42800;53.928;27.662;2024-01-16T03:17:01;2.80;;;2.50;;
56911;SDS011;42800;53.928;27.662;2024-01-16T03:19:27;3.33;;;2.50;;
56911;SDS011;42800;53.928;27.662;2024-01-16T03:21:53;4.68;;;2.30;;
56911;SDS011;42800;53.928;27.662;2024-01-16T03:24:19;6.65;;;2.70;;
56911;SDS011;42800;53.928;27.662;2024-01-16T03:26:46;9.05;;;3.03;;
56911;SDS011;42800;53.928;27.662;2024-01-16T03:29:12;5.10;;;2.65;;
56911;SDS011;42800;53.928;27.662;2024-01-16T03:31:38;5.75;;;3.63;;
56911;SDS011;42800;53.928;27.662;2024-01-16T03:34:05;7.30;;;2.45;;
56911;SDS011;42800;53.928;27.662;2024-01-16T03:36:34;3.53;;;2.92;;
56911;SDS011;42800;53.928;27.662;2024-01-16T03:39:00;3.33;;;2.78;;
56911;SDS011;42800;53.928;27.662;2024-01-16T03:41:26;6.18;;;2.08;;
56911;SDS011;42800;53.928;27.662;2024-01-16T03:43:52;8.57;;;2.60;;
56911;SDS011;42800;53.928;27.662;2024-01-16T03:46:21;7.03;;;2.65;;
56911;SDS011;42800;53.928;27.662;2024-01-16T03:48:47;3.72;;;1.75;;
56911;SDS011;42800;53.928;27.662;2024-01-16T03:51:14;2.47;;;2.22;;
56911;SDS011;42800;53.928;27.662;2024-01-16T03:53:43;2.35;;;2.15;;
56911;SDS011;42800;53.928;27.662;2024-01-16T03:56:09;2.50;;;2.30;;
56911;SDS011;42800;53.928;27.662;2024-01-16T03:58:35;4.95;;;2.42;;
56911;SDS011;42800;53.928;27.662;2024-01-16T04:01:01;2.78;;;2.47;;
56911;SDS011;42800;53.928;27.662;2024-01-16T04:03:27;3.15;;;2.13;;
56911;SDS011;42800;53.928;27.662;2024-01-16T04:05:53;2.78;;;2.35;;
56911;SDS011;42800;53.928;27.662;2024-01-16T04:08:20;5.07;;;2.53;;
56911;SDS011;42800;53.928;27.662;2024-01-16T04:10:46;4.10;;;2.72;;
56911;SDS011;42800;53.928;27.662;2024-01-16T04:13:12;5.68;;;2.45;;
56911;SDS011;42800;53.928;27.662;2024-01-16T04:15:39;4.25;;;2.53;;
56911;SDS011;42800;53.928;27.662;2024-01-16T04:18:05;2.50;;;2.25;;
56911;SDS011;42800;53.928;27.662;2024-01-16T04:20:31;5.38;;;2.25;;
56911;SDS011;42800;53.928;27.662;2024-01-16T04:22:58;6.82;;;2.85;;
56911;SDS011;42800;53.928;27.662;2024-01-16T04:25:25;3.05;;;2.53;;
56911;SDS011;42800;53.928;27.662;2024-01-16T04:27:51;8.48;;;3.33;;
56911;SDS011;42800;53.928;27.662;2024-01-16T04:30:17;4.25;;;2.40;;
56911;SDS011;42800;53.928;27.662;2024-01-16T04:32:45;4.95;;;2.70;;
56911;SDS011;42800;53.928;27.662;2024-01-16T04:35:11;4.78;;;2.17;;
56911;SDS011;42800;53.928;27.662;2024-01-16T04:37:37;4.40;;;2.50;;
56911;SDS011;42800;53.928;27.662;2024-01-16T04:40:04;3.38;;;2.78;;
56911;SDS011;42800;53.928;27.662;2024-01-16T04:42:31;4.68;;;2.85;;
56911;SDS011;42800;53.928;27.662;2024-01-16T04:44:57;4.40;;;3.00;;
56911;SDS011;42800;53.928;27.662;2024-01-16T04:47:24;5.18;;;2.70;;
56911;SDS011;42800;53.928;27.662;2024-01-16T04:49:50;5.35;;;2.75;;
56911;SDS011;42800;53.928;27.662;2024-01-16T04:52:16;2.40;;;2.20;;
56911;SDS011;42800;53.928;27.662;2024-01-16T04:54:43;4.25;;;2.50;;
56911;SDS011;42800;53.928;27.662;2024-01-16T04:57:10;6.78;;;2.30;;
56911;SDS011;42800;53.928;27.662;2024-01-16T04:59:37;10.85;;;2.65;;
56911;SDS011;42800;53.928;27.662;2024-01-16T05:02:04;4.95;;;2.13;;
56911;SDS011;42800;53.928;27.662;2024-01-16T05:04:30;4.93;;;2.90;;
56911;SDS011;42800;53.928;27.662;2024-01-16T05:06:56;3.33;;;3.00;;
56911;SDS011;42800;53.928;27.662;2024-01-16T05:09:22;6.03;;;2.40;;
56911;SDS011;42800;53.928;27.662;2024-01-16T05:11:48;2.55;;;2.17;;
56911;SDS011;42800;53.928;27.662;2024-01-16T05:14:14;2.40;;;2.17;;
56911;SDS011;42800;53.928;27.662;2024-01-16T05:16:41;3.10;;;2.38;;
56911;SDS011;42800;53.928;27.662;2024-01-16T05:19:07;7.88;;;3.03;;
56911;SDS011;42800;53.928;27.662;2024-01-16T05:21:34;3.03;;;2.10;;
56911;SDS011;42800;53.928;27.662;2024-01-16T05:24:00;4.05;;;2.10;;
56911;SDS011;42800;53.928;27.662;2024-01-16T05:26:26;3.13;;;2.10;;
56911;SDS011;42800;53.928;27.662;2024-01-16T05:28:52;4.43;;;2.38;;
56911;SDS011;42800;53.928;27.662;2024-01-16T05:31:18;3.42;;;2.38;;
56911;SDS011;42800;53.928;27.662;2024-01-16T05:33:45;2.92;;;1.77;;
56911;SDS011;42800;53.928;27.662;2024-01-16T05:36:12;4.68;;;2.28;;
56911;SDS011;42800;53.928;27.662;2024-01-16T05:38:38;4.70;;;2.55;;
56911;SDS011;42800;53.928;27.662;2024-01-16T05:41:04;3.13;;;2.10;;
56911;SDS011;42800;53.928;27.662;2024-01-16T05:43:31;3.30;;;2.03;;
56911;SDS011;42800;53.928;27.662;2024-01-16T05:45:57;3.17;;;1.85;;
56911;SDS011;42800;53.928;27.662;2024-01-16T05:48:23;1.92;;;1.70;;
56911;SDS011;42800;53.928;27.662;2024-01-16T05:50:50;2.40;;;2.10;;
56911;SDS011;42800;53.928;27.662;2024-01-16T05:53:16;4.55;;;2.85;;
56911;SDS011;42800;53.928;27.662;2024-01-16T05:55:43;2.28;;;2.00;;
56911;SDS011;42800;53.928;27.662;2024-01-16T05:58:09;4.45;;;2.13;;
56911;SDS011;42800;53.928;27.662;2024-01-16T06:00:35;1.88;;;1.77;;
56911;SDS011;42800;53.928;27.662;2024-01-16T06:03:01;3.08;;;1.73;;
56911;SDS011;42800;53.928;27.662;2024-01-16T06:05:28;2.40;;;2.20;;
56911;SDS011;42800;53.928;27.662;2024-01-16T06:07:55;2.80;;;2.35;;
56911;SDS011;42800;53.928;27.662;2024-01-16T06:10:21;4.80;;;2.95;;
56911;SDS011;42800;53.928;27.662;2024-01-16T06:12:47;5.78;;;4.20;;
56911;SDS011;42800;53.928;27.662;2024-01-16T06:15:14;9.13;;;4.47;;
56911;SDS011;42800;53.928;27.662;2024-01-16T06:17:40;5.25;;;3.78;;
56911;SDS011;42800;53.928;27.662;2024-01-16T06:20:06;5.13;;;2.90;;
56911;SDS011;42800;53.928;27.662;2024-01-16T06:22:33;3.08;;;2.70;;
56911;SDS011;42800;53.928;27.662;2024-01-16T06:25:00;5.95;;;2.65;;
56911;SDS011;42800;53.928;27.662;2024-01-16T06:27:27;2.70;;;2.00;;
56911;SDS011;42800;53.928;27.662;2024-01-16T06:29:53;2.95;;;2.33;;
56911;SDS011;42800;53.928;27.662;2024-01-16T06:32:19;2.85;;;2.58;;
56911;SDS011;42800;53.928;27.662;2024-01-16T06:34:45;2.95;;;2.58;;
56911;SDS011;42800;53.928;27.662;2024-01-16T06:37:11;7.93;;;3.13;;
56911;SDS011;42800;53.928;27.662;2024-01-16T06:39:37;2.95;;;2.70;;
56911;SDS011;42800;53.928;27.662;2024-01-16T06:42:05;3.90;;;3.13;;
56911;SDS011;42800;53.928;27.662;2024-01-16T06:44:32;5.65;;;2.83;;
56911;SDS011;42800;53.928;27.662;2024-01-16T06:46:58;3.50;;;2.95;;
56911;SDS011;42800;53.928;27.662;2024-01-16T06:49:24;4.68;;;2.47;;
56911;SDS011;42800;53.928;27.662;2024-01-16T06:51:51;4.15;;;2.33;;
56911;SDS011;42800;53.928;27.662;2024-01-16T06:54:17;10.18;;;3.53;;
56911;SDS011;42800;53.928;27.662;2024-01-16T06:56:45;4.22;;;2.75;;
56911;SDS011;42800;53.928;27.662;2024-01-16T06:59:14;3.22;;;2.08;;
56911;SDS011;42800;53.928;27.662;2024-01-16T07:01:41;7.55;;;3.10;;
56911;SDS011;42800;53.928;27.662;2024-01-16T07:04:07;5.75;;;2.53;;
56911;SDS011;42800;53.928;27.662;2024-01-16T07:06:33;9.80;;;2.95;;
56911;SDS011;42800;53.928;27.662;2024-01-16T07:08:59;4.80;;;2.08;;
56911;SDS011;42800;53.928;27.662;2024-01-16T07:11:26;6.88;;;2.78;;
56911;SDS011;42800;53.928;27.662;2024-01-16T07:13:52;13.20;;;4.65;;
56911;SDS011;42800;53.928;27.662;2024-01-16T07:16:19;4.18;;;2.60;;
56911;SDS011;42800;53.928;27.662;2024-01-16T07:18:47;3.00;;;2.28;;
56911;SDS011;42800;53.928;27.662;2024-01-16T07:21:16;6.30;;;2.80;;
56911;SDS011;42800;53.928;27.662;2024-01-16T07:23:43;6.68;;;2.20;;
56911;SDS011;42800;53.928;27.662;2024-01-16T07:26:09;1.92;;;1.58;;
56911;SDS011;42800;53.928;27.662;2024-01-16T07:28:36;2.75;;;1.88;;
56911;SDS011;42800;53.928;27.662;2024-01-16T07:31:02;2.42;;;1.95;;
56911;SDS011;42800;53.928;27.662;2024-01-16T07:33:29;6.38;;;2.25;;
56911;SDS011;42800;53.928;27.662;2024-01-16T07:35:55;1.60;;;1.50;;
56911;SDS011;42800;53.928;27.662;2024-01-16T07:38:21;4.60;;;2.35;;
56911;SDS011;42800;53.928;27.662;2024-01-16T07:40:47;1.55;;;1.45;;
56911;SDS011;42800;53.928;27.662;2024-01-16T07:43:14;2.67;;;1.90;;
56911;SDS011;42800;53.928;27.662;2024-01-16T07:45:40;2.60;;;2.33;;
56911;SDS011;42800;53.928;27.662;2024-01-16T07:48:06;5.03;;;2.88;;
56911;SDS011;42800;53.928;27.662;2024-01-16T07:50:34;2.25;;;1.80;;
56911;SDS011;42800;53.928;27.662;2024-01-16T07:53:00;3.95;;;2.00;;
56911;SDS011;42800;53.928;27.662;2024-01-16T07:55:26;3.10;;;2.08;;
56911;SDS011;42800;53.928;27.662;2024-01-16T07:57:53;3.67;;;2.38;;
56911;SDS011;42800;53.928;27.662;2024-01-16T08:00:20;1.30;;;1.13;;
56911;SDS011;42800;53.928;27.662;2024-01-16T08:02:47;3.08;;;2.00;;
56911;SDS011;42800;53.928;27.662;2024-01-16T08:05:14;1.88;;;1.75;;
56911;SDS011;42800;53.928;27.662;2024-01-16T08:07:42;3.28;;;2.38;;
56911;SDS011;42800;53.928;27.662;2024-01-16T08:10:09;2.88;;;2.25;;
56911;SDS011;42800;53.928;27.662;2024-01-16T08:12:35;3.67;;;2.00;;
56911;SDS011;42800;53.928;27.662;2024-01-16T08:15:02;1.52;;;1.42;;
56911;SDS011;42800;53.928;27.662;2024-01-16T08:17:29;4.28;;;2.67;;
56911;SDS011;42800;53.928;27.662;2024-01-16T08:19:55;4.22;;;2.20;;
56911;SDS011;42800;53.928;27.662;2024-01-16T08:22:21;4.63;;;2.97;;
56911;SDS011;42800;53.928;27.662;2024-01-16T08:24:48;3.22;;;2.05;;
56911;SDS011;42800;53.928;27.662;2024-01-16T08:27:14;1.45;;;1.27;;
56911;SDS011;42800;53.928;27.662;2024-01-16T08:29:42;2.30;;;2.10;;
56911;SDS011;42800;53.928;27.662;2024-01-16T08:32:08;5.22;;;3.20;;
56911;SDS011;42800;53.928;27.662;2024-01-16T08:34:34;3.83;;;2.80;;
56911;SDS011;42800;53.928;27.662;2024-01-16T08:37:00;3.55;;;2.67;;
56911;SDS011;42800;53.928;27.662;2024-01-16T08:39:27;5.43;;;2.08;;
56911;SDS011;42800;53.928;27.662;2024-01-16T08:41:54;4.63;;;2.70;;
56911;SDS011;42800;53.928;27.662;2024-01-16T08:44:22;3.78;;;2.55;;
56911;SDS011;42800;53.928;27.662;2024-01-16T08:46:49;5.43;;;2.40;;
56911;SDS011;42800;53.928;27.662;2024-01-16T08:49:15;5.65;;;2.58;;
56911;SDS011;42800;53.928;27.662;2024-01-16T08:51:42;4.10;;;2.65;;
56911;SDS011;42800;53.928;27.662;2024-01-16T08:54:08;2.83;;;2.38;;
56911;SDS011;42800;53.928;27.662;2024-01-16T08:56:34;3.05;;;2.58;;
56911;SDS011;42800;53.928;27.662;2024-01-16T08:59:01;3.58;;;2.15;;
56911;SDS011;42800;53.928;27.662;2024-01-16T09:01:27;3.38;;;2.53;;
56911;SDS011;42800;53.928;27.662;2024-01-16T09:03:53;3.17;;;2.10;;
56911;SDS011;42800;53.928;27.662;2024-01-16T09:06:20;3.00;;;2.67;;
56911;SDS011;42800;53.928;27.662;2024-01-16T09:08:46;2.97;;;1.73;;
56911;SDS011;42800;53.928;27.662;2024-01-16T09:11:12;2.50;;;2.30;;
56911;SDS011;42800;53.928;27.662;2024-01-16T09:13:39;3.30;;;2.10;;
56911;SDS011;42800;53.928;27.662;2024-01-16T09:16:05;3.25;;;2.70;;
56911;SDS011;42800;53.928;27.662;2024-01-16T09:18:32;3.70;;;2.17;;
56911;SDS011;42800;53.928;27.662;2024-01-16T09:20:58;4.75;;;2.85;;
56911;SDS011;42800;53.928;27.662;2024-01-16T09:23:24;4.03;;;2.03;;
56911;SDS011;42800;53.928;27.662;2024-01-16T09:25:51;5.97;;;2.75;;
56911;SDS011;42800;53.928;27.662;2024-01-16T09:28:17;3.25;;;1.95;;
56911;SDS011;42800;53.928;27.662;2024-01-16T09:30:44;3.08;;;2.17;;
56911;SDS011;42800;53.928;27.662;2024-01-16T09:33:11;3.38;;;2.45;;
56911;SDS011;42800;53.928;27.662;2024-01-16T09:35:38;4.20;;;3.08;;
56911;SDS011;42800;53.928;27.662;2024-01-16T09:38:04;4.05;;;2.17;;
56911;SDS011;42800;53.928;27.662;2024-01-16T09:40:31;4.80;;;2.75;;
56911;SDS011;42800;53.928;27.662;2024-01-16T09:42:57;3.53;;;2.45;;
56911;SDS011;42800;53.928;27.662;2024-01-16T09:45:23;4.47;;;3.20;;
56911;SDS011;42800;53.928;27.662;2024-01-16T09:47:51;4.75;;;2.85;;
56911;SDS011;42800;53.928;27.662;2024-01-16T09:50:18;5.70;;;3.00;;
56911;SDS011;42800;53.928;27.662;2024-01-16T09:52:45;5.57;;;3.17;;
56911;SDS011;42800;53.928;27.662;2024-01-16T09:55:12;2.17;;;1.83;;
56911;SDS011;42800;53.928;27.662;2024-01-16T09:57:39;3.60;;;2.85;;
56911;SDS011;42800;53.928;27.662;2024-01-16T10:00:07;3.17;;;2.10;;
56911;SDS011;42800;53.928;27.662;2024-01-16T10:02:37;3.67;;;2.65;;
56911;SDS011;42800;53.928;27.662;2024-01-16T10:05:04;15.40;;;2.45;;
56911;SDS011;42800;53.928;27.662;2024-01-16T10:07:31;6.95;;;3.15;;
56911;SDS011;42800;53.928;27.662;2024-01-16T10:09:59;4.18;;;2.53;;
56911;SDS011;42800;53.928;27.662;2024-01-16T10:12:25;5.22;;;2.83;;
56911;SDS011;42800;53.928;27.662;2024-01-16T10:14:52;11.80;;;4.18;;
56911;SDS011;42800;53.928;27.662;2024-01-16T10:17:21;4.40;;;2.45;;
56911;SDS011;42800;53.928;27.662;2024-01-16T10:19:48;7.30;;;3.05;;
56911;SDS011;42800;53.928;27.662;2024-01-16T10:22:19;7.32;;;3.47;;
56911;SDS011;42800;53.928;27.662;2024-01-16T10:24:47;6.45;;;2.47;;
56911;SDS011;42800;53.928;27.662;2024-01-16T10:27:14;17.98;;;6.80;;
56911;SDS011;42800;53.928;27.662;2024-01-16T10:29:43;2.50;;;1.67;;
56911;SDS011;42800;53.928;27.662;2024-01-16T10:32:26;27.88;;;8.40;;
56911;SDS011;42800;53.928;27.662;2024-01-16T10:35:00;6.03;;;2.92;;
56911;SDS011;42800;53.928;27.662;2024-01-16T10:37:29;7.55;;;3.22;;
56911;SDS011;42800;53.928;27.662;2024-01-16T10:39:56;6.05;;;3.25;;
56911;SDS011;42800;53.928;27.662;2024-01-16T10:42:22;6.03;;;2.95;;
56911;SDS011;42800;53.928;27.662;2024-01-16T10:44:52;3.85;;;2.90;;
56911;SDS011;42800;53.928;27.662;2024-01-16T10:47:19;4.25;;;3.35;;
56911;SDS011;42800;53.928;27.662;2024-01-16T10:49:47;7.13;;;4.72;;
56911;SDS011;42800;53.928;27.662;2024-01-16T10:52:13;6.00;;;3.22;;
56911;SDS011;42800;53.928;27.662;2024-01-16T10:54:41;5.95;;;3.05;;
56911;SDS011;42800;53.928;27.662;2024-01-16T10:57:10;11.77;;;7.25;;
56911;SDS011;42800;53.928;27.662;2024-01-16T10:59:40;4.40;;;3.13;;
56911;SDS011;42800;53.928;27.662;2024-01-16T11:02:12;3.60;;;2.63;;
56911;SDS011;42800;53.928;27.662;2024-01-16T11:04:44;12.35;;;7.15;;
56911;SDS011;42800;53.928;27.662;2024-01-16T11:07:12;4.20;;;3.80;;
56911;SDS011;42800;53.928;27.662;2024-01-16T11:09:40;4.13;;;3.08;;
56911;SDS011;42800;53.928;27.662;2024-01-16T11:12:07;4.68;;;2.90;;
56911;SDS011;42800;53.928;27.662;2024-01-16T11:14:37;5.53;;;2.88;;
56911;SDS011;42800;53.928;27.662;2024-01-16T11:17:03;3.10;;;2.28;;
56911;SDS011;42800;53.928;27.662;2024-01-16T11:19:30;4.00;;;2.88;;
56911;SDS011;42800;53.928;27.662;2024-01-16T11:21:58;9.32;;;3.20;;
56911;SDS011;42800;53.928;27.662;2024-01-16T11:24:25;3.22;;;2.17;;
56911;SDS011;42800;53.928;27.662;2024-01-16T11:26:52;5.28;;;2.60;;
56911;SDS011;42800;53.928;27.662;2024-01-16T11:32:05;3.35;;;2.40;;
56911;SDS011;42800;53.928;27.662;2024-01-16T11:37:28;6.82;;;2.63;;
56911;SDS011;42800;53.928;27.662;2024-01-16T11:42:52;2.10;;;1.60;;
56911;SDS011;42800;53.928;27.662;2024-01-16T11:48:18;3.58;;;2.53;;
56911;SDS011;42800;53.928;27.662;2024-01-16T11:50:45;2.17;;;1.98;;
56911;SDS011;42800;53.928;27.662;2024-01-16T11:53:15;5.45;;;3.08;;
56911;SDS011;42800;53.928;27.662;2024-01-16T11:55:59;4.75;;;2.78;;
56911;SDS011;42800;53.928;27.662;2024-01-16T11:58:48;3.33;;;2.85;;
56911;SDS011;42800;53.928;27.662;2024-01-16T12:01:23;2.70;;;1.95;;
56911;SDS011;42800;53.928;27.662;2024-01-16T12:04:01;2.55;;;2.28;;
56911;SDS011;42800;53.928;27.662;2024-01-16T12:06:28;5.28;;;2.75;;
56911;SDS011;42800;53.928;27.662;2024-01-16T12:08:54;2.80;;;2.13;;
56911;SDS011;42800;53.928;27.662;2024-01-16T12:11:35;3.75;;;2.35;;
56911;SDS011;42800;53.928;27.662;2024-01-16T12:14:02;3.42;;;2.30;;
56911;SDS011;42800;53.928;27.662;2024-01-16T12:16:29;2.50;;;2.30;;
56911;SDS011;42800;53.928;27.662;2024-01-16T12:19:03;3.90;;;3.15;;
56911;SDS011;42800;53.928;27.662;2024-01-16T12:21:30;5.45;;;2.72;;
56911;SDS011;42800;53.928;27.662;2024-01-16T12:23:59;3.78;;;2.70;;
56911;SDS011;42800;53.928;27.662;2024-01-16T12:26:25;3.33;;;2.70;;
56911;SDS011;42800;53.928;27.662;2024-01-16T12:28:51;4.20;;;2.67;;
56911;SDS011;42800;53.928;27.662;2024-01-16T12:31:18;8.02;;;2.83;;
56911;SDS011;42800;53.928;27.662;2024-01-16T12:33:45;4.10;;;3.05;;
56911;SDS011;42800;53.928;27.662;2024-01-16T12:36:11;4.05;;;2.65;;
56911;SDS011;42800;53.928;27.662;2024-01-16T12:38:37;4.28;;;2.60;;
56911;SDS011;42800;53.928;27.662;2024-01-16T12:41:05;4.45;;;2.55;;
56911;SDS011;42800;53.928;27.662;2024-01-16T12:43:35;3.78;;;2.83;;
56911;SDS011;42800;53.928;27.662;2024-01-16T12:46:02;3.25;;;2.45;;
56911;SDS011;42800;53.928;27.662;2024-01-16T12:48:29;4.45;;;2.40;;
56911;SDS011;42800;53.928;27.662;2024-01-16T12:50:59;5.88;;;2.78;;
56911;SDS011;42800;53.928;27.662;2024-01-16T12:53:26;5.28;;;2.80;;
56911;SDS011;42800;53.928;27.662;2024-01-16T12:55:57;2.92;;;2.28;;
56911;SDS011;42800;53.928;27.662;2024-01-16T12:58:24;4.20;;;2.58;;
56911;SDS011;42800;53.928;27.662;2024-01-16T13:00:52;5.30;;;2.17;;
56911;SDS011;42800;53.928;27.662;2024-01-16T13:03:19;3.15;;;2.42;;
56911;SDS011;42800;53.928;27.662;2024-01-16T13:05:54;8.38;;;4.30;;
56911;SDS011;42800;53.928;27.662;2024-01-16T13:08:22;3.38;;;2.33;;
56911;SDS011;42800;53.928;27.662;2024-01-16T13:11:01;3.05;;;1.80;;
56911;SDS011;42800;53.928;27.662;2024-01-16T13:13:28;2.58;;;2.05;;
56911;SDS011;42800;53.928;27.662;2024-01-16T13:15:55;3.67;;;1.98;;
56911;SDS011;42800;53.928;27.662;2024-01-16T13:18:22;3.15;;;1.90;;
56911;SDS011;42800;53.928;27.662;2024-01-16T13:20:50;2.45;;;1.92;;
56911;SDS011;42800;53.928;27.662;2024-01-16T13:23:16;2.70;;;1.80;;
56911;SDS011;42800;53.928;27.662;2024-01-16T13:25:44;2.88;;;2.10;;
56911;SDS011;42800;53.928;27.662;2024-01-16T13:28:11;2.05;;;1.80;;
56911;SDS011;42800;53.928;27.662;2024-01-16T13:30:37;1.50;;;1.40;;
56911;SDS011;42800;53.928;27.662;2024-01-16T13:33:03;2.35;;;1.85;;
56911;SDS011;42800;53.928;27.662;2024-01-16T13:35:30;3.75;;;2.40;;
56911;SDS011;42800;53.928;27.662;2024-01-16T13:37:56;5.63;;;2.40;;
56911;SDS011;42800;53.928;27.662;2024-01-16T13:40:23;1.70;;;1.60;;
56911;SDS011;42800;53.928;27.662;2024-01-16T13:42:50;4.30;;;2.25;;
56911;SDS011;42800;53.928;27.662;2024-01-16T13:45:16;3.35;;;1.92;;
56911;SDS011;42800;53.928;27.662;2024-01-16T13:47:43;1.83;;;1.70;;
56911;SDS011;42800;53.928;27.662;2024-01-16T13:50:09;1.90;;;1.70;;
56911;SDS011;42800;53.928;27.662;2024-01-16T13:52:35;1.67;;;1.55;;
56911;SDS011;42800;53.928;27.662;2024-01-16T13:55:02;3.90;;;1.45;;
56911;SDS011;42800;53.928;27.662;2024-01-16T13:57:30;2.95;;;1.90;;
56911;SDS011;42800;53.928;27.662;2024-01-16T13:59:57;4.90;;;2.13;;
56911;SDS011;42800;53.928;27.662;2024-01-16T14:02:24;2.72;;;1.70;;
56911;SDS011;42800;53.928;27.662;2024-01-16T14:04:50;2.88;;;1.95;;
56911;SDS011;42800;53.928;27.662;2024-01-16T14:07:16;3.30;;;2.13;;
56911;SDS011;42800;53.928;27.662;2024-01-16T14:09:42;4.05;;;1.67;;
56911;SDS011;42800;53.928;27.662;2024-01-16T14:12:10;1.15;;;1.00;;
56911;SDS011;42800;53.928;27.662;2024-01-16T14:14:36;3.63;;;1.85;;
56911;SDS011;42800;53.928;27.662;2024-01-16T14:17:06;3.85;;;1.60;;
56911;SDS011;42800;53.928;27.662;2024-01-16T14:19:33;3.17;;;1.98;;
56911;SDS011;42800;53.928;27.662;2024-01-16T14:22:00;7.32;;;3.38;;
56911;SDS011;42800;53.928;27.662;2024-01-16T14:24:26;3.47;;;1.58;;
56911;SDS011;42800;53.928;27.662;2024-01-16T14:26:52;6.57;;;2.97;;
56911;SDS011;42800;53.928;27.662;2024-01-16T14:29:18;14.18;;;4.22;;
56911;SDS011;42800;53.928;27.662;2024-01-16T14:31:45;5.10;;;2.30;;
56911;SDS011;42800;53.928;27.662;2024-01-16T14:34:14;1.92;;;1.30;;
56911;SDS011;42800;53.928;27.662;2024-01-16T14:36:41;4.05;;;1.70;;
56911;SDS011;42800;53.928;27.662;2024-01-16T14:39:07;2.00;;;1.08;;
56911;SDS011;42800;53.928;27.662;2024-01-16T14:41:38;1.20;;;1.10;;
56911;SDS011;42800;53.928;27.662;2024-01-16T14:44:04;1.75;;;1.30;;